Time;durP1;ratioP1;P1;durP2;ratioP2;P2;SDS_P1;SDS_P2;PMS_P1;PMS_P2;Temp;Humidity;BMP_temperature;BMP_pressure;BME280_temperature;BME280_humidity;BME280_pressure;Samples;Min_cycle;Max_cycle;Signal;HPM_P1;HPM_P2
2023/03/13 00:00:46;;;;;;;5.10;3.80;;;;;;;;;;772522;182;921555;-68
2023/03/13 00:03:12;;;;;;;6.10;3.60;;;;;;;;;;772117;181;911600;-69
2023/03/13 00:05:38;;;;;;;7.40;4.35;;;;;;;;;;773142;181;918833;-63
2023/03/13 00:08:03;;;;;;;6.80;4.43;;;;;;;;;;769521;183;918846;-68
2023/03/13 00:10:29;;;;;;;5.63;4.17;;;;;;;;;;764390;183;916921;-63
2023/03/13 00:12:55;;;;;;;5.53;4.15;;;;;;;;;;772148;181;919513;-63
2023/03/13 00:15:21;;;;;;;5.93;3.80;;;;;;;;;;776945;181;917973;-68
2023/03/13 00:17:47;;;;;;;8.70;4.03;;;;;;;;;;765468;179;920295;-63
2023/03/13 00:20:16;;;;;;;9.73;6.13;;;;;;;;;;762352;180;915987;-63
2023/03/13 00:22:38;;;;;;;8.43;4.70;;;;;;;;;;768762;180;966489;-63
2023/03/13 00:25:05;;;;;;;6.53;4.57;;;;;;;;;;779777;179;917940;-70
2023/03/13 00:27:31;;;;;;;6.93;4.50;;;;;;;;;;766554;180;912384;-63
2023/03/13 00:29:57;;;;;;;7.60;5.20;;;;;;;;;;768445;181;919638;-70
2023/03/13 00:32:23;;;;;;;6.70;4.80;;;;;;;;;;774749;181;816796;-69
2023/03/13 00:34:49;;;;;;;5.33;3.53;;;;;;;;;;768946;181;918093;-69
2023/03/13 00:37:15;;;;;;;5.77;4.30;;;;;;;;;;773932;181;816803;-64
2023/03/13 00:39:40;;;;;;;8.70;4.53;;;;;;;;;;776958;181;909496;-63
2023/03/13 00:42:06;;;;;;;7.77;4.60;;;;;;;;;;766702;180;919372;-69
2023/03/13 00:44:32;;;;;;;6.40;4.57;;;;;;;;;;765629;179;918337;-62
2023/03/13 00:46:58;;;;;;;8.70;6.70;;;;;;;;;;775534;181;1023095;-68
2023/03/13 00:49:24;;;;;;;9.83;5.20;;;;;;;;;;782243;177;1020758;-63
2023/03/13 00:51:50;;;;;;;7.63;4.70;;;;;;;;;;768244;179;918264;-63
2023/03/13 00:54:16;;;;;;;6.13;4.53;;;;;;;;;;762166;184;818545;-63
2023/03/13 00:56:42;;;;;;;6.23;4.20;;;;;;;;;;771001;182;817351;-63
2023/03/13 00:59:08;;;;;;;12.10;4.93;;;;;;;;;;766871;182;916743;-68
2023/03/13 01:01:33;;;;;;;6.83;4.03;;;;;;;;;;774827;180;651358;-68
2023/03/13 01:04:00;;;;;;;9.13;4.30;;;;;;;;;;775445;182;627648;-68
2023/03/13 01:06:26;;;;;;;7.87;4.73;;;;;;;;;;767333;180;919055;-63
2023/03/13 01:08:52;;;;;;;6.10;4.40;;;;;;;;;;765731;183;913093;-63
2023/03/13 01:11:17;;;;;;;6.53;4.43;;;;;;;;;;772805;181;622270;-63
2023/03/13 01:13:43;;;;;;;5.40;4.20;;;;;;;;;;771737;181;630764;-69
2023/03/13 01:16:09;;;;;;;6.67;5.10;;;;;;;;;;767429;181;818904;-68
2023/03/13 01:18:35;;;;;;;6.00;4.67;;;;;;;;;;763419;181;819850;-63
2023/03/13 01:21:01;;;;;;;6.45;4.80;;;;;;;;;;769756;183;918897;-69
2023/03/13 01:23:27;;;;;;;8.00;5.00;;;;;;;;;;764863;183;816623;-63
2023/03/13 01:25:54;;;;;;;11.03;5.10;;;;;;;;;;764905;182;873864;-68
2023/03/13 01:28:19;;;;;;;6.87;4.57;;;;;;;;;;772048;180;916985;-67
2023/03/13 01:30:45;;;;;;;6.33;4.07;;;;;;;;;;770385;181;919341;-63
2023/03/13 01:33:11;;;;;;;7.25;4.72;;;;;;;;;;769824;181;878964;-63
2023/03/13 01:35:37;;;;;;;6.13;4.30;;;;;;;;;;775556;181;890959;-63
2023/03/13 01:38:03;;;;;;;7.63;5.30;;;;;;;;;;772271;181;938975;-63
2023/03/13 01:40:28;;;;;;;6.65;4.20;;;;;;;;;;770175;180;919370;-68
2023/03/13 01:42:54;;;;;;;8.17;5.27;;;;;;;;;;768785;181;919028;-64
2023/03/13 01:45:26;;;;;;;7.97;4.90;;;;;;;;;;775318;180;923379;-68
2023/03/13 01:47:52;;;;;;;7.30;5.10;;;;;;;;;;771548;181;918990;-63
2023/03/13 01:50:18;;;;;;;6.10;4.10;;;;;;;;;;774119;180;918419;-63
2023/03/13 01:52:43;;;;;;;5.77;4.77;;;;;;;;;;779799;181;919165;-67
2023/03/13 01:55:09;;;;;;;7.07;4.70;;;;;;;;;;767700;179;919370;-68
2023/03/13 01:57:37;;;;;;;9.90;4.40;;;;;;;;;;769162;181;921024;-68
2023/03/13 02:00:06;;;;;;;7.30;4.53;;;;;;;;;;772494;181;918121;-68
2023/03/13 02:02:31;;;;;;;6.23;4.13;;;;;;;;;;776033;181;920715;-64
2023/03/13 02:04:56;;;;;;;8.33;4.47;;;;;;;;;;767822;179;818102;-66
2023/03/13 02:07:22;;;;;;;7.80;4.20;;;;;;;;;;775227;181;814557;-64
2023/03/13 02:09:50;;;;;;;6.70;4.70;;;;;;;;;;772305;179;919134;-68
2023/03/13 02:12:14;;;;;;;8.47;5.13;;;;;;;;;;764952;181;816699;-68
2023/03/13 02:14:40;;;;;;;12.90;4.60;;;;;;;;;;762003;180;915904;-64
2023/03/13 02:17:06;;;;;;;8.17;5.57;;;;;;;;;;770857;180;912113;-68
2023/03/13 02:19:37;;;;;;;10.73;5.30;;;;;;;;;;774546;180;892974;-68
2023/03/13 02:22:04;;;;;;;6.23;3.87;;;;;;;;;;768334;179;883904;-69
2023/03/13 02:24:34;;;;;;;6.97;4.75;;;;;;;;;;766423;182;915796;-68
2023/03/13 02:27:00;;;;;;;5.70;4.10;;;;;;;;;;772824;181;918792;-65
2023/03/13 02:29:26;;;;;;;6.78;4.60;;;;;;;;;;771212;181;921332;-65
2023/03/13 02:31:52;;;;;;;10.00;4.67;;;;;;;;;;770033;182;815594;-69
2023/03/13 02:34:18;;;;;;;7.10;5.23;;;;;;;;;;772159;181;918933;-68
2023/03/13 02:36:44;;;;;;;8.83;4.60;;;;;;;;;;776406;181;940840;-65
2023/03/13 02:39:09;;;;;;;6.83;4.10;;;;;;;;;;773470;181;919719;-64
2023/03/13 02:41:35;;;;;;;5.65;4.35;;;;;;;;;;771650;181;919485;-69
2023/03/13 02:44:01;;;;;;;6.13;4.40;;;;;;;;;;770026;182;919050;-69
2023/03/13 02:46:27;;;;;;;6.50;4.80;;;;;;;;;;762977;182;1020138;-65
2023/03/13 02:48:53;;;;;;;7.37;5.30;;;;;;;;;;761090;182;918587;-69
2023/03/13 02:51:22;;;;;;;7.23;5.03;;;;;;;;;;771414;181;919674;-66
2023/03/13 02:53:47;;;;;;;9.03;4.03;;;;;;;;;;766444;181;918836;-66
2023/03/13 02:56:13;;;;;;;5.50;4.63;;;;;;;;;;759350;181;899858;-70
2023/03/13 02:58:40;;;;;;;8.13;4.80;;;;;;;;;;770179;181;819731;-66
2023/03/13 03:01:06;;;;;;;6.10;4.90;;;;;;;;;;779333;181;819337;-70
2023/03/13 03:03:32;;;;;;;8.23;5.97;;;;;;;;;;772288;180;919307;-69
2023/03/13 03:05:57;;;;;;;13.60;4.87;;;;;;;;;;768931;181;918688;-66
2023/03/13 03:08:23;;;;;;;5.20;4.20;;;;;;;;;;777758;179;919030;-66
2023/03/13 03:10:49;;;;;;;6.00;4.57;;;;;;;;;;775287;181;817323;-66
2023/03/13 03:13:15;;;;;;;8.10;4.47;;;;;;;;;;769224;181;920047;-70
2023/03/13 03:15:41;;;;;;;7.70;4.33;;;;;;;;;;774220;182;816827;-70
2023/03/13 03:18:07;;;;;;;7.72;4.68;;;;;;;;;;764743;181;917253;-70
2023/03/13 03:20:32;;;;;;;8.00;4.47;;;;;;;;;;770197;180;918955;-71
2023/03/13 03:22:58;;;;;;;5.97;4.00;;;;;;;;;;771900;181;919836;-70
2023/03/13 03:25:24;;;;;;;6.27;4.63;;;;;;;;;;778386;181;914788;-69
2023/03/13 03:27:50;;;;;;;5.37;3.73;;;;;;;;;;774610;182;902094;-68
2023/03/13 03:30:16;;;;;;;6.07;4.10;;;;;;;;;;764959;182;918848;-69
2023/03/13 03:32:42;;;;;;;5.67;3.83;;;;;;;;;;773576;181;920147;-69
2023/03/13 03:35:08;;;;;;;7.00;4.97;;;;;;;;;;775495;180;915661;-69
2023/03/13 03:37:34;;;;;;;9.10;4.60;;;;;;;;;;771283;180;918411;-71
2023/03/13 03:39:59;;;;;;;13.47;10.53;;;;;;;;;;776225;181;913881;-66
2023/03/13 03:42:25;;;;;;;9.93;8.90;;;;;;;;;;771937;181;926529;-70
2023/03/13 03:44:51;;;;;;;9.00;6.43;;;;;;;;;;771592;181;920893;-66
2023/03/13 03:47:17;;;;;;;8.10;4.90;;;;;;;;;;771169;181;925418;-70
2023/03/13 03:49:43;;;;;;;8.30;4.47;;;;;;;;;;779894;179;919465;-66
2023/03/13 03:52:09;;;;;;;8.47;5.40;;;;;;;;;;773800;180;919405;-70
2023/03/13 03:54:34;;;;;;;8.50;4.90;;;;;;;;;;771040;181;926610;-66
2023/03/13 03:57:00;;;;;;;9.97;5.67;;;;;;;;;;778140;181;920178;-65
2023/03/13 03:59:26;;;;;;;6.47;4.10;;;;;;;;;;773779;181;863724;-66
2023/03/13 04:01:52;;;;;;;7.67;5.23;;;;;;;;;;772826;180;921156;-69
2023/03/13 04:04:18;;;;;;;7.10;4.80;;;;;;;;;;771618;181;918739;-69
2023/03/13 04:06:44;;;;;;;7.30;5.10;;;;;;;;;;772027;180;919076;-67
2023/03/13 04:09:09;;;;;;;7.00;4.17;;;;;;;;;;772907;180;816440;-66
2023/03/13 04:11:35;;;;;;;7.18;4.15;;;;;;;;;;774528;180;918337;-70
2023/03/13 04:14:01;;;;;;;6.87;4.50;;;;;;;;;;770609;181;916429;-70
2023/03/13 04:16:27;;;;;;;7.73;4.20;;;;;;;;;;769019;181;918857;-71
2023/03/13 04:18:53;;;;;;;9.60;5.13;;;;;;;;;;770674;180;919634;-70
2023/03/13 04:21:19;;;;;;;6.87;4.60;;;;;;;;;;779757;180;918854;-70
2023/03/13 04:23:45;;;;;;;6.40;4.40;;;;;;;;;;773026;180;915832;-66
2023/03/13 04:26:10;;;;;;;6.60;4.80;;;;;;;;;;771687;181;922392;-70
2023/03/13 04:28:36;;;;;;;9.03;5.30;;;;;;;;;;778792;181;919582;-70
2023/03/13 04:31:02;;;;;;;5.57;4.03;;;;;;;;;;763719;181;1022202;-66
2023/03/13 04:33:28;;;;;;;9.32;4.72;;;;;;;;;;767291;180;920337;-70
2023/03/13 04:35:54;;;;;;;7.63;5.03;;;;;;;;;;770840;181;817538;-71
2023/03/13 04:38:20;;;;;;;6.90;5.20;;;;;;;;;;772468;180;920832;-70
2023/03/13 04:40:46;;;;;;;7.90;5.10;;;;;;;;;;769339;181;916861;-66
2023/03/13 04:43:11;;;;;;;9.90;4.60;;;;;;;;;;768447;181;918603;-69
2023/03/13 04:45:37;;;;;;;9.00;5.40;;;;;;;;;;772230;180;918672;-66
2023/03/13 04:48:03;;;;;;;7.93;5.20;;;;;;;;;;771394;180;914321;-70
2023/03/13 04:50:29;;;;;;;10.17;4.87;;;;;;;;;;770999;181;918966;-67
2023/03/13 04:52:55;;;;;;;9.00;5.40;;;;;;;;;;777916;181;814590;-68
2023/03/13 04:55:21;;;;;;;8.25;5.00;;;;;;;;;;771832;181;915825;-70
2023/03/13 04:57:46;;;;;;;7.90;5.40;;;;;;;;;;765634;181;922549;-66
2023/03/13 05:00:13;;;;;;;9.50;5.40;;;;;;;;;;772647;182;919346;-67
2023/03/13 05:02:38;;;;;;;10.10;4.72;;;;;;;;;;773587;180;921893;-70
2023/03/13 05:05:04;;;;;;;7.03;5.07;;;;;;;;;;773252;181;919631;-67
2023/03/13 05:07:30;;;;;;;6.70;4.87;;;;;;;;;;771442;182;912798;-67
2023/03/13 05:09:56;;;;;;;7.23;4.73;;;;;;;;;;761974;183;916930;-67
2023/03/13 05:12:22;;;;;;;8.03;5.47;;;;;;;;;;772438;180;915584;-70
2023/03/13 05:14:49;;;;;;;7.63;4.73;;;;;;;;;;769484;181;917904;-70
2023/03/13 05:17:13;;;;;;;7.00;4.80;;;;;;;;;;771565;179;626022;-71
2023/03/13 05:19:39;;;;;;;5.43;4.10;;;;;;;;;;775681;180;633347;-67
2023/03/13 05:22:05;;;;;;;9.10;5.40;;;;;;;;;;773176;181;630337;-67
2023/03/13 05:24:31;;;;;;;6.80;5.17;;;;;;;;;;780312;181;629965;-71
2023/03/13 05:26:57;;;;;;;5.33;4.50;;;;;;;;;;774831;180;820781;-70
2023/03/13 05:29:23;;;;;;;7.67;5.53;;;;;;;;;;774158;180;916339;-68
2023/03/13 05:31:49;;;;;;;8.35;5.57;;;;;;;;;;779600;179;917969;-71
2023/03/13 05:34:15;;;;;;;7.40;4.90;;;;;;;;;;767447;181;873423;-67
2023/03/13 05:36:41;;;;;;;9.00;5.30;;;;;;;;;;764051;181;907480;-70
2023/03/13 05:39:06;;;;;;;9.60;4.87;;;;;;;;;;766244;181;918715;-66
2023/03/13 05:41:32;;;;;;;10.73;4.70;;;;;;;;;;774034;181;816027;-66
2023/03/13 05:43:58;;;;;;;9.90;5.25;;;;;;;;;;775142;180;915562;-66
2023/03/13 05:46:24;;;;;;;6.13;5.00;;;;;;;;;;774114;180;952751;-70
2023/03/13 05:48:51;;;;;;;6.37;4.77;;;;;;;;;;778590;181;901555;-67
2023/03/13 05:51:16;;;;;;;9.52;4.80;;;;;;;;;;767127;181;897642;-67
2023/03/13 05:53:42;;;;;;;10.60;6.17;;;;;;;;;;769450;179;909454;-67
2023/03/13 05:56:07;;;;;;;7.30;5.00;;;;;;;;;;773060;180;945309;-71
2023/03/13 05:58:33;;;;;;;12.10;5.00;;;;;;;;;;774127;181;810427;-71
2023/03/13 06:00:59;;;;;;;6.53;4.67;;;;;;;;;;771210;181;918640;-66
2023/03/13 06:03:25;;;;;;;8.50;5.60;;;;;;;;;;773010;180;822131;-70
2023/03/13 06:05:51;;;;;;;8.43;4.60;;;;;;;;;;778036;181;788061;-71
2023/03/13 06:08:17;;;;;;;9.73;6.03;;;;;;;;;;771946;178;826234;-66
2023/03/13 06:10:42;;;;;;;7.63;4.23;;;;;;;;;;766997;180;921216;-66
2023/03/13 06:13:08;;;;;;;10.70;5.50;;;;;;;;;;773175;181;978922;-71
2023/03/13 06:15:34;;;;;;;10.17;4.77;;;;;;;;;;767615;181;919591;-66
2023/03/13 06:18:00;;;;;;;7.87;5.20;;;;;;;;;;773311;180;832562;-67
2023/03/13 06:20:26;;;;;;;7.90;4.83;;;;;;;;;;774430;181;861646;-66
2023/03/13 06:22:52;;;;;;;9.13;5.10;;;;;;;;;;770727;180;919522;-67
2023/03/13 06:25:17;;;;;;;8.23;4.43;;;;;;;;;;770892;181;811218;-71
2023/03/13 06:27:43;;;;;;;13.32;4.90;;;;;;;;;;771393;181;817340;-70
2023/03/13 06:30:10;;;;;;;8.53;5.13;;;;;;;;;;776947;178;907032;-67
2023/03/13 06:32:36;;;;;;;10.30;6.37;;;;;;;;;;758461;183;914663;-71
2023/03/13 06:35:03;;;;;;;7.93;3.73;;;;;;;;;;765882;181;918911;-66
2023/03/13 06:37:28;;;;;;;9.00;4.67;;;;;;;;;;772584;182;915738;-67
2023/03/13 06:39:54;;;;;;;7.10;4.40;;;;;;;;;;772364;181;945436;-70
2023/03/13 06:42:20;;;;;;;11.67;4.50;;;;;;;;;;774621;180;912350;-71
2023/03/13 06:44:45;;;;;;;7.27;4.03;;;;;;;;;;775328;180;940852;-67
2023/03/13 06:47:11;;;;;;;8.43;5.23;;;;;;;;;;772083;178;886387;-70
2023/03/13 06:49:37;;;;;;;7.13;4.93;;;;;;;;;;770476;181;919146;-71
2023/03/13 06:52:04;;;;;;;7.60;4.13;;;;;;;;;;769351;181;920846;-67
2023/03/13 06:54:30;;;;;;;7.20;4.50;;;;;;;;;;768629;182;813834;-67
2023/03/13 06:56:56;;;;;;;5.73;4.43;;;;;;;;;;769752;180;813695;-67
2023/03/13 06:59:22;;;;;;;6.40;4.20;;;;;;;;;;769947;181;918579;-71
2023/03/13 07:01:47;;;;;;;7.50;4.50;;;;;;;;;;777384;180;918548;-71
2023/03/13 07:04:13;;;;;;;8.63;6.13;;;;;;;;;;767638;181;918744;-66
2023/03/13 07:06:39;;;;;;;8.80;3.83;;;;;;;;;;771203;180;869881;-71
2023/03/13 07:09:05;;;;;;;6.50;4.30;;;;;;;;;;775757;180;818636;-72
2023/03/13 07:11:31;;;;;;;6.13;3.73;;;;;;;;;;775888;180;625966;-67
2023/03/13 07:14:00;;;;;;;5.03;3.70;;;;;;;;;;770779;181;817346;-67
2023/03/13 07:16:23;;;;;;;7.80;4.03;;;;;;;;;;771813;181;909435;-70
2023/03/13 07:18:49;;;;;;;6.90;4.20;;;;;;;;;;764229;181;806383;-71
2023/03/13 07:21:15;;;;;;;7.97;4.53;;;;;;;;;;769402;180;917574;-72
2023/03/13 07:23:41;;;;;;;7.07;4.05;;;;;;;;;;769335;181;913560;-67
2023/03/13 07:26:07;;;;;;;11.30;4.77;;;;;;;;;;773635;180;916504;-66
2023/03/13 07:28:33;;;;;;;6.10;3.10;;;;;;;;;;772449;178;1020223;-68
2023/03/13 07:31:03;;;;;;;7.90;4.00;;;;;;;;;;765784;181;1125887;-72
2023/03/13 07:33:29;;;;;;;8.93;3.60;;;;;;;;;;772553;180;920595;-72
2023/03/13 07:35:55;;;;;;;6.62;3.72;;;;;;;;;;772909;180;918728;-73
2023/03/13 07:38:21;;;;;;;6.53;3.67;;;;;;;;;;771368;181;918573;-66
2023/03/13 07:40:48;;;;;;;6.80;3.70;;;;;;;;;;770183;181;918721;-67
2023/03/13 07:43:13;;;;;;;3.30;2.27;;;;;;;;;;773723;181;897390;-67
2023/03/13 07:45:39;;;;;;;5.00;3.40;;;;;;;;;;768497;179;831078;-68
2023/03/13 07:48:05;;;;;;;8.13;3.67;;;;;;;;;;767449;181;919117;-72
2023/03/13 07:50:31;;;;;;;8.33;3.40;;;;;;;;;;772029;179;918249;-67
2023/03/13 07:52:57;;;;;;;7.77;3.30;;;;;;;;;;769561;181;910801;-72
2023/03/13 07:55:23;;;;;;;6.20;3.67;;;;;;;;;;775260;180;919531;-72
2023/03/13 07:57:49;;;;;;;7.80;3.83;;;;;;;;;;776351;180;894139;-72
2023/03/13 08:00:15;;;;;;;5.63;3.53;;;;;;;;;;772026;181;938315;-67
2023/03/13 08:02:41;;;;;;;6.30;4.00;;;;;;;;;;772821;180;911794;-72
2023/03/13 08:05:06;;;;;;;7.50;3.63;;;;;;;;;;768697;180;914950;-72
2023/03/13 08:07:32;;;;;;;7.90;3.93;;;;;;;;;;775635;180;917074;-73
2023/03/13 08:09:58;;;;;;;4.80;3.50;;;;;;;;;;771127;180;914297;-72
2023/03/13 08:12:24;;;;;;;5.37;3.67;;;;;;;;;;768041;180;909444;-66
2023/03/13 08:14:50;;;;;;;6.63;3.83;;;;;;;;;;774054;182;892111;-72
2023/03/13 08:17:16;;;;;;;6.00;3.43;;;;;;;;;;768919;181;818790;-68
2023/03/13 08:19:41;;;;;;;9.10;3.70;;;;;;;;;;770979;181;914955;-68
2023/03/13 08:22:07;;;;;;;7.40;3.70;;;;;;;;;;775632;181;917430;-74
2023/03/13 08:24:33;;;;;;;13.00;4.37;;;;;;;;;;771494;181;818673;-67
2023/03/13 08:26:59;;;;;;;6.83;4.10;;;;;;;;;;771668;180;919179;-72
2023/03/13 08:29:25;;;;;;;9.10;4.07;;;;;;;;;;770545;181;919051;-71
2023/03/13 08:31:51;;;;;;;8.20;4.00;;;;;;;;;;767929;180;921354;-67
2023/03/13 08:34:17;;;;;;;4.40;2.70;;;;;;;;;;767407;180;918890;-67
2023/03/13 08:36:43;;;;;;;7.80;4.23;;;;;;;;;;772000;180;917369;-72
2023/03/13 08:39:10;;;;;;;6.40;3.70;;;;;;;;;;774685;181;918509;-68
2023/03/13 08:41:36;;;;;;;7.60;4.60;;;;;;;;;;769377;180;919875;-73
2023/03/13 08:44:02;;;;;;;5.00;3.43;;;;;;;;;;768851;181;916910;-73
2023/03/13 08:46:28;;;;;;;9.17;3.07;;;;;;;;;;774243;181;917155;-73
2023/03/13 08:48:54;;;;;;;6.68;4.30;;;;;;;;;;770843;179;917509;-72
2023/03/13 08:51:20;;;;;;;12.23;4.63;;;;;;;;;;767395;179;859318;-72
2023/03/13 08:53:46;;;;;;;7.83;3.17;;;;;;;;;;769402;180;919246;-72
2023/03/13 08:56:12;;;;;;;6.47;3.77;;;;;;;;;;761137;183;863349;-68
2023/03/13 08:58:38;;;;;;;6.00;3.90;;;;;;;;;;766871;181;918492;-68
2023/03/13 09:01:03;;;;;;;6.03;3.03;;;;;;;;;;769753;181;937238;-72
2023/03/13 09:03:29;;;;;;;7.87;3.60;;;;;;;;;;774282;181;916164;-73
2023/03/13 09:05:55;;;;;;;5.32;2.87;;;;;;;;;;771134;178;918086;-67
2023/03/13 09:08:21;;;;;;;5.97;3.10;;;;;;;;;;767146;180;916502;-67
2023/03/13 09:10:47;;;;;;;7.53;3.30;;;;;;;;;;774078;181;904103;-73
2023/03/13 09:13:13;;;;;;;4.37;3.30;;;;;;;;;;771779;180;816516;-68
2023/03/13 09:15:39;;;;;;;5.37;3.30;;;;;;;;;;767940;181;919347;-67
2023/03/13 09:18:05;;;;;;;5.93;3.45;;;;;;;;;;776023;181;876220;-69
2023/03/13 09:20:30;;;;;;;9.87;3.33;;;;;;;;;;773376;180;891761;-67
2023/03/13 09:22:56;;;;;;;7.50;3.23;;;;;;;;;;771978;180;879625;-72
2023/03/13 09:25:22;;;;;;;5.87;3.43;;;;;;;;;;771916;180;819705;-68
2023/03/13 09:27:48;;;;;;;6.40;3.00;;;;;;;;;;776446;180;912918;-73
2023/03/13 09:30:14;;;;;;;6.50;3.83;;;;;;;;;;769801;179;918160;-68
2023/03/13 09:32:40;;;;;;;7.67;4.80;;;;;;;;;;769132;181;905180;-72
2023/03/13 09:35:06;;;;;;;8.20;3.77;;;;;;;;;;773962;179;917352;-67
2023/03/13 09:37:32;;;;;;;7.83;3.77;;;;;;;;;;768233;181;869154;-67
2023/03/13 09:39:59;;;;;;;7.30;4.00;;;;;;;;;;768725;181;917668;-67
2023/03/13 09:42:24;;;;;;;9.00;4.30;;;;;;;;;;775803;181;928441;-73
2023/03/13 09:44:53;;;;;;;7.67;3.40;;;;;;;;;;768855;181;897271;-68
2023/03/13 09:47:23;;;;;;;7.03;3.50;;;;;;;;;;771444;181;812502;-67
2023/03/13 09:49:53;;;;;;;6.77;3.10;;;;;;;;;;773457;181;912440;-68
2023/03/13 09:52:17;;;;;;;5.83;4.00;;;;;;;;;;776069;180;815077;-68
2023/03/13 09:54:43;;;;;;;6.77;4.17;;;;;;;;;;771025;179;918911;-68
2023/03/13 09:57:12;;;;;;;9.57;3.97;;;;;;;;;;770915;181;907593;-73
2023/03/13 09:59:50;;;;;;;7.57;3.00;;;;;;;;;;768537;181;928853;-68
2023/03/13 10:02:31;;;;;;;8.80;3.73;;;;;;;;;;773728;181;919860;-68
2023/03/13 10:05:15;;;;;;;7.07;2.70;;;;;;;;;;762089;183;920109;-74
2023/03/13 10:07:41;;;;;;;9.23;3.03;;;;;;;;;;757514;183;916815;-69
2023/03/13 10:10:07;;;;;;;6.80;3.70;;;;;;;;;;762394;181;914260;-68
2023/03/13 10:12:32;;;;;;;5.53;2.63;;;;;;;;;;768510;180;817550;-68
2023/03/13 10:15:02;;;;;;;9.25;3.58;;;;;;;;;;769129;181;914789;-72
2023/03/13 10:17:29;;;;;;;9.63;3.10;;;;;;;;;;776268;180;917756;-68
2023/03/13 10:19:55;;;;;;;5.60;3.50;;;;;;;;;;772839;180;917462;-68
2023/03/13 10:22:21;;;;;;;5.90;3.27;;;;;;;;;;770020;180;918436;-66
2023/03/13 10:24:48;;;;;;;7.73;3.00;;;;;;;;;;775662;181;917437;-68
2023/03/13 10:27:15;;;;;;;7.50;3.33;;;;;;;;;;773343;180;854194;-73
2023/03/13 10:29:40;;;;;;;6.43;3.57;;;;;;;;;;768698;181;919774;-73
2023/03/13 10:32:06;;;;;;;6.63;2.77;;;;;;;;;;771830;180;919268;-68
2023/03/13 10:34:38;;;;;;;6.17;2.90;;;;;;;;;;778441;181;813697;-72
2023/03/13 10:37:05;;;;;;;7.10;3.50;;;;;;;;;;769456;181;890291;-72
2023/03/13 10:39:30;;;;;;;6.90;3.77;;;;;;;;;;771028;181;1018290;-68
2023/03/13 10:41:57;;;;;;;5.55;2.70;;;;;;;;;;772353;180;916489;-71
2023/03/13 10:44:23;;;;;;;5.53;3.67;;;;;;;;;;772220;179;920628;-73
2023/03/13 10:46:49;;;;;;;15.87;4.77;;;;;;;;;;771388;180;824474;-67
2023/03/13 10:49:15;;;;;;;6.47;2.90;;;;;;;;;;769201;180;938572;-73
2023/03/13 10:51:40;;;;;;;5.07;2.43;;;;;;;;;;776250;180;912388;-73
2023/03/13 10:54:18;;;;;;;5.87;3.00;;;;;;;;;;769654;180;894459;-67
2023/03/13 10:56:44;;;;;;;5.40;3.00;;;;;;;;;;768023;181;921284;-72
2023/03/13 10:59:15;;;;;;;4.90;3.00;;;;;;;;;;769145;181;809213;-71
2023/03/13 11:01:41;;;;;;;4.60;2.87;;;;;;;;;;769968;180;917272;-72
2023/03/13 11:04:25;;;;;;;4.80;2.80;;;;;;;;;;766033;181;1122478;-72
2023/03/13 11:06:51;;;;;;;8.20;3.80;;;;;;;;;;767764;181;919110;-66
2023/03/13 11:09:17;;;;;;;8.77;4.00;;;;;;;;;;767339;181;918315;-72
2023/03/13 11:11:45;;;;;;;10.77;3.10;;;;;;;;;;770216;180;916371;-72
2023/03/13 11:14:12;;;;;;;5.00;3.63;;;;;;;;;;769851;179;918434;-72
2023/03/13 11:16:38;;;;;;;6.10;3.60;;;;;;;;;;771735;180;815500;-73
2023/03/13 11:19:04;;;;;;;4.90;2.90;;;;;;;;;;769232;179;918531;-72
2023/03/13 11:21:30;;;;;;;5.20;3.53;;;;;;;;;;773307;181;920603;-72
2023/03/13 11:24:00;;;;;;;5.17;3.10;;;;;;;;;;771078;180;1019159;-72
2023/03/13 11:26:24;;;;;;;5.70;3.20;;;;;;;;;;769581;181;818525;-71
2023/03/13 11:28:55;;;;;;;6.17;3.60;;;;;;;;;;772254;179;904926;-71
2023/03/13 11:31:24;;;;;;;7.07;4.10;;;;;;;;;;773757;179;819484;-68
2023/03/13 11:34:05;;;;;;;5.13;3.10;;;;;;;;;;771570;180;929799;-73
2023/03/13 11:36:34;;;;;;;5.57;3.43;;;;;;;;;;769703;181;913180;-72
2023/03/13 11:39:17;;;;;;;8.50;3.40;;;;;;;;;;773149;181;920006;-67
2023/03/13 11:41:48;;;;;;;5.93;3.53;;;;;;;;;;759877;181;831316;-72
2023/03/13 11:44:18;;;;;;;6.25;4.32;;;;;;;;;;762908;180;915708;-72
2023/03/13 11:46:56;;;;;;;4.87;3.63;;;;;;;;;;775162;180;894818;-72
2023/03/13 11:49:34;;;;;;;6.00;3.57;;;;;;;;;;768611;181;911175;-67
2023/03/13 11:52:01;;;;;;;7.50;3.93;;;;;;;;;;767510;182;817172;-72
2023/03/13 11:54:34;;;;;;;5.70;4.17;;;;;;;;;;765699;180;937777;-67
2023/03/13 11:56:59;;;;;;;7.47;4.25;;;;;;;;;;766968;180;1006528;-68
2023/03/13 11:59:30;;;;;;;5.67;4.13;;;;;;;;;;771195;180;919309;-66
2023/03/13 12:01:57;;;;;;;5.90;4.47;;;;;;;;;;768499;183;825633;-72
2023/03/13 12:04:24;;;;;;;6.50;4.47;;;;;;;;;;768409;180;915932;-68
2023/03/13 12:06:51;;;;;;;9.40;4.70;;;;;;;;;;772783;180;812362;-72
2023/03/13 12:09:20;;;;;;;5.93;3.83;;;;;;;;;;776812;180;810835;-71
2023/03/13 12:11:47;;;;;;;6.67;4.20;;;;;;;;;;766832;179;925005;-71
2023/03/13 12:14:15;;;;;;;11.00;3.27;;;;;;;;;;768992;180;914873;-66
2023/03/13 12:16:46;;;;;;;8.70;5.30;;;;;;;;;;768641;180;902259;-67
2023/03/13 12:19:12;;;;;;;7.33;4.47;;;;;;;;;;775713;181;915364;-71
2023/03/13 12:21:38;;;;;;;4.70;3.10;;;;;;;;;;766881;181;916394;-71
2023/03/13 12:24:13;;;;;;;7.27;4.10;;;;;;;;;;769120;181;838357;-70
2023/03/13 12:26:41;;;;;;;8.80;4.80;;;;;;;;;;768559;180;912559;-66
2023/03/13 12:29:08;;;;;;;7.90;4.27;;;;;;;;;;773865;181;889957;-71
2023/03/13 12:31:35;;;;;;;7.77;4.37;;;;;;;;;;769685;181;919192;-66
2023/03/13 12:34:07;;;;;;;9.97;4.37;;;;;;;;;;771074;181;910269;-70
2023/03/13 12:36:33;;;;;;;9.07;5.05;;;;;;;;;;771889;181;919008;-70
2023/03/13 12:39:04;;;;;;;6.43;4.03;;;;;;;;;;772557;181;918480;-66
2023/03/13 12:41:34;;;;;;;8.73;5.22;;;;;;;;;;770780;180;918836;-66
2023/03/13 12:44:00;;;;;;;8.40;3.83;;;;;;;;;;769647;180;918561;-66
2023/03/13 12:46:30;;;;;;;7.20;3.67;;;;;;;;;;768795;181;920342;-71
2023/03/13 12:49:02;;;;;;;7.77;3.80;;;;;;;;;;779089;181;816154;-66
2023/03/13 12:51:32;;;;;;;8.47;3.90;;;;;;;;;;768128;181;932533;-70
2023/03/13 12:54:13;;;;;;;5.43;3.40;;;;;;;;;;771581;180;919096;-66
2023/03/13 12:56:54;;;;;;;6.50;4.30;;;;;;;;;;768777;181;711804;-69
2023/03/13 12:59:21;;;;;;;7.80;3.83;;;;;;;;;;771856;181;917417;-70
2023/03/13 13:01:47;;;;;;;5.40;3.27;;;;;;;;;;771604;181;919079;-70
2023/03/13 13:04:14;;;;;;;8.37;3.70;;;;;;;;;;774238;181;918892;-65
2023/03/13 13:06:45;;;;;;;7.10;5.30;;;;;;;;;;769997;180;917334;-70
2023/03/13 13:09:14;;;;;;;7.70;4.27;;;;;;;;;;770932;180;915324;-64
2023/03/13 13:11:40;;;;;;;7.47;3.40;;;;;;;;;;769710;180;1014636;-66
2023/03/13 13:14:12;;;;;;;7.00;3.97;;;;;;;;;;772198;181;919809;-70
2023/03/13 13:16:37;;;;;;;6.60;3.30;;;;;;;;;;767173;181;920066;-70
2023/03/13 13:19:09;;;;;;;4.77;3.47;;;;;;;;;;765986;181;919011;-69
2023/03/13 13:21:36;;;;;;;7.17;3.67;;;;;;;;;;770340;180;924963;-70
2023/03/13 13:24:07;;;;;;;7.60;4.00;;;;;;;;;;774440;181;918481;-70
2023/03/13 13:26:36;;;;;;;5.93;3.60;;;;;;;;;;768306;181;1021019;-70
2023/03/13 13:29:16;;;;;;;7.00;3.73;;;;;;;;;;770681;181;918712;-70
2023/03/13 13:32:01;;;;;;;6.17;3.27;;;;;;;;;;767758;181;920877;-66
2023/03/13 13:34:42;;;;;;;3.67;3.13;;;;;;;;;;770388;181;911826;-66
2023/03/13 13:37:27;;;;;;;5.70;3.17;;;;;;;;;;771325;180;919071;-67
2023/03/13 13:39:52;;;;;;;4.27;2.30;;;;;;;;;;770926;180;874782;-69
2023/03/13 13:42:42;;;;;;;4.07;2.43;;;;;;;;;;770420;180;1022126;-70
2023/03/13 13:45:20;;;;;;;4.37;2.33;;;;;;;;;;767304;181;913291;-66
2023/03/13 13:47:46;;;;;;;8.60;2.80;;;;;;;;;;767112;180;979688;-70
2023/03/13 13:50:29;;;;;;;3.70;2.33;;;;;;;;;;774465;180;948966;-69
2023/03/13 13:52:54;;;;;;;4.23;2.40;;;;;;;;;;772015;181;876950;-66
2023/03/13 13:55:36;;;;;;;6.03;1.93;;;;;;;;;;773901;180;816808;-70
2023/03/13 13:58:04;;;;;;;5.07;2.60;;;;;;;;;;772045;180;921249;-67
2023/03/13 14:00:36;;;;;;;3.80;2.53;;;;;;;;;;765767;181;919469;-67
2023/03/13 14:03:01;;;;;;;4.10;2.77;;;;;;;;;;771258;180;916451;-70
2023/03/13 14:05:27;;;;;;;5.83;3.13;;;;;;;;;;774991;180;918867;-71
2023/03/13 14:07:53;;;;;;;5.63;3.10;;;;;;;;;;771989;181;879247;-71
2023/03/13 14:10:24;;;;;;;4.10;2.50;;;;;;;;;;770867;181;1122756;-67
2023/03/13 14:12:50;;;;;;;4.60;3.07;;;;;;;;;;774563;181;918224;-70
2023/03/13 14:15:18;;;;;;;5.40;3.47;;;;;;;;;;766534;181;926468;-67
2023/03/13 14:17:45;;;;;;;5.37;2.92;;;;;;;;;;770737;181;907315;-70
2023/03/13 14:20:16;;;;;;;4.80;2.87;;;;;;;;;;772940;181;919005;-66
2023/03/13 14:22:43;;;;;;;6.10;3.40;;;;;;;;;;774917;181;919298;-66
2023/03/13 14:25:09;;;;;;;5.97;2.80;;;;;;;;;;774285;180;918008;-71
2023/03/13 14:27:35;;;;;;;5.10;3.57;;;;;;;;;;769114;180;918570;-66